Time;durP1;ratioP1;P1;durP2;ratioP2;P2;SDS_P1;SDS_P2;PMS_P1;PMS_P2;Temp;Humidity;BMP_temperature;BMP_pressure;BME280_temperature;BME280_humidity;BME280_pressure;Samples;Min_cycle;Max_cycle;Signal;HPM_P1;HPM_P2
2023/03/28 00:00:23;;;;;;;3.38;1.10;;;;;;;;;;5032682;28;20317;-60
2023/03/28 00:02:49;;;;;;;5.90;1.10;;;;;;;;;;5032687;28;20708;-60
2023/03/28 00:05:17;;;;;;;0.90;0.60;;;;;;;;;;5032830;28;20187;-61
2023/03/28 00:07:44;;;;;;;1.70;0.70;;;;;;;;;;5032789;28;20198;-60
2023/03/28 00:10:12;;;;;;;1.50;0.80;;;;;;;;;;5032750;28;20245;-61
2023/03/28 00:12:39;;;;;;;0.70;0.70;;;;;;;;;;5032676;28;20191;-60
2023/03/28 00:15:07;;;;;;;0.80;0.50;;;;;;;;;;5032527;28;20234;-61
2023/03/28 00:17:34;;;;;;;0.70;0.65;;;;;;;;;;5034096;28;20280;-61
2023/03/28 00:20:03;;;;;;;2.45;0.68;;;;;;;;;;5036480;28;20887;-61
2023/03/28 00:22:32;;;;;;;1.05;0.65;;;;;;;;;;5036791;28;20201;-61
2023/03/28 00:24:59;;;;;;;0.80;0.60;;;;;;;;;;5036436;28;20193;-61
2023/03/28 00:27:27;;;;;;;1.13;0.60;;;;;;;;;;5036446;28;20194;-61
2023/03/28 00:29:54;;;;;;;1.00;0.60;;;;;;;;;;5036396;28;20276;-61
2023/03/28 00:32:21;;;;;;;0.65;0.50;;;;;;;;;;5036440;28;20194;-61
2023/03/28 00:34:48;;;;;;;0.70;0.60;;;;;;;;;;5036212;28;20644;-61
2023/03/28 00:37:16;;;;;;;0.85;0.57;;;;;;;;;;5036678;28;20190;-61
2023/03/28 00:39:48;;;;;;;0.60;0.60;;;;;;;;;;5035898;28;20738;-61
2023/03/28 00:42:16;;;;;;;0.75;0.60;;;;;;;;;;5036111;28;20690;-61
2023/03/28 00:44:48;;;;;;;2.75;0.60;;;;;;;;;;5036178;28;20198;-61
2023/03/28 00:47:24;;;;;;;0.60;0.50;;;;;;;;;;5036022;28;20678;-61
2023/03/28 00:49:53;;;;;;;8.32;0.80;;;;;;;;;;5036054;28;20565;-61
2023/03/28 00:52:22;;;;;;;0.60;0.50;;;;;;;;;;5035909;28;20621;-61
2023/03/28 00:54:49;;;;;;;1.45;0.70;;;;;;;;;;5035797;28;20200;-61
2023/03/28 00:57:17;;;;;;;0.95;0.60;;;;;;;;;;5036063;28;20565;-60
2023/03/28 00:59:44;;;;;;;1.00;0.70;;;;;;;;;;5035801;28;20217;-61
2023/03/28 01:02:12;;;;;;;0.77;0.75;;;;;;;;;;5035863;28;20587;-61
2023/03/28 01:04:45;;;;;;;0.90;0.68;;;;;;;;;;5035721;28;20195;-61
2023/03/28 01:07:12;;;;;;;0.80;0.70;;;;;;;;;;5035583;28;20195;-61
2023/03/28 01:09:39;;;;;;;3.30;0.90;;;;;;;;;;5035573;28;20289;-61
2023/03/28 01:12:06;;;;;;;0.70;0.70;;;;;;;;;;5035763;28;20194;-61
2023/03/28 01:14:33;;;;;;;1.23;0.63;;;;;;;;;;5035640;28;20289;-61
2023/03/28 01:17:00;;;;;;;0.80;0.75;;;;;;;;;;5035593;28;20551;-61
2023/03/28 01:19:41;;;;;;;0.82;0.73;;;;;;;;;;5035441;28;20222;-61
2023/03/28 01:22:21;;;;;;;2.35;0.90;;;;;;;;;;5035347;28;20199;-61
2023/03/28 01:25:09;;;;;;;3.47;1.05;;;;;;;;;;5035468;28;20197;-62
2023/03/28 01:27:40;;;;;;;0.75;0.73;;;;;;;;;;5010405;28;20261;-61
2023/03/28 01:30:28;;;;;;;1.45;0.70;;;;;;;;;;5034417;28;20609;-61
2023/03/28 01:33:17;;;;;;;4.20;1.33;;;;;;;;;;5030451;28;20199;-61
2023/03/28 01:35:56;;;;;;;3.92;1.20;;;;;;;;;;5035289;28;20216;-61
2023/03/28 01:38:30;;;;;;;1.00;0.70;;;;;;;;;;5034924;28;20225;-61
2023/03/28 01:41:00;;;;;;;1.85;0.80;;;;;;;;;;5035277;28;20634;-61
2023/03/28 01:43:31;;;;;;;2.65;1.00;;;;;;;;;;5035121;28;20204;-61
2023/03/28 01:46:01;;;;;;;1.20;0.70;;;;;;;;;;5035133;28;20612;-61
2023/03/28 01:48:33;;;;;;;1.25;0.70;;;;;;;;;;5035082;28;20193;-61
2023/03/28 01:51:04;;;;;;;1.42;0.60;;;;;;;;;;5034865;28;20280;-61
2023/03/28 01:53:34;;;;;;;1.35;0.82;;;;;;;;;;5035037;28;20202;-61
2023/03/28 01:56:04;;;;;;;2.45;0.85;;;;;;;;;;5034800;28;20650;-61
2023/03/28 01:58:35;;;;;;;3.63;0.90;;;;;;;;;;5034840;28;20197;-61
2023/03/28 02:01:04;;;;;;;2.33;0.80;;;;;;;;;;5034655;28;20676;-61
2023/03/28 02:03:32;;;;;;;1.40;0.80;;;;;;;;;;5034464;28;20195;-61
2023/03/28 02:06:01;;;;;;;3.17;1.05;;;;;;;;;;5034747;28;20193;-61
2023/03/28 02:08:29;;;;;;;1.40;0.73;;;;;;;;;;5034457;28;20194;-61
2023/03/28 02:10:58;;;;;;;1.13;0.77;;;;;;;;;;5034580;28;20306;-61
2023/03/28 02:13:27;;;;;;;2.30;0.85;;;;;;;;;;5034466;28;20200;-61
2023/03/28 02:15:56;;;;;;;1.35;0.95;;;;;;;;;;5034290;28;20190;-61
2023/03/28 02:18:28;;;;;;;3.67;1.05;;;;;;;;;;5034543;28;20189;-62
2023/03/28 02:20:57;;;;;;;1.33;0.80;;;;;;;;;;5034398;28;20218;-62
2023/03/28 02:23:26;;;;;;;3.33;1.08;;;;;;;;;;5034276;28;20197;-62
2023/03/28 02:25:53;;;;;;;1.10;0.73;;;;;;;;;;5034325;28;20196;-62
2023/03/28 02:28:22;;;;;;;1.00;0.75;;;;;;;;;;5034073;28;20601;-62
2023/03/28 02:30:50;;;;;;;0.80;0.80;;;;;;;;;;5034102;28;20281;-62
2023/03/28 02:33:32;;;;;;;1.45;1.20;;;;;;;;;;5034123;28;20643;-61
2023/03/28 02:36:03;;;;;;;1.23;1.10;;;;;;;;;;5034217;28;20280;-62
2023/03/28 02:38:32;;;;;;;2.20;1.10;;;;;;;;;;5033858;28;20336;-62
2023/03/28 02:41:04;;;;;;;2.03;0.95;;;;;;;;;;5033812;28;20569;-62
2023/03/28 02:43:40;;;;;;;1.23;1.00;;;;;;;;;;5033983;28;20187;-62
2023/03/28 02:46:09;;;;;;;0.80;0.70;;;;;;;;;;5034001;28;20204;-62
2023/03/28 02:48:43;;;;;;;4.47;0.80;;;;;;;;;;5033935;28;20641;-62
2023/03/28 02:51:15;;;;;;;2.17;0.82;;;;;;;;;;5033745;28;20200;-62
2023/03/28 02:53:44;;;;;;;2.05;0.70;;;;;;;;;;5033596;28;20446;-62
2023/03/28 02:56:14;;;;;;;3.25;1.10;;;;;;;;;;5033963;28;20208;-62
2023/03/28 02:58:47;;;;;;;2.25;0.82;;;;;;;;;;5033675;28;20263;-62
2023/03/28 03:01:14;;;;;;;1.23;0.80;;;;;;;;;;5033465;28;20709;-62
2023/03/28 03:03:42;;;;;;;3.05;0.80;;;;;;;;;;5033484;28;20190;-62
2023/03/28 03:06:11;;;;;;;1.67;1.00;;;;;;;;;;5033501;28;20572;-62
2023/03/28 03:08:38;;;;;;;1.63;1.00;;;;;;;;;;5033626;28;20285;-61
2023/03/28 03:11:05;;;;;;;1.45;0.95;;;;;;;;;;5033564;28;20225;-62
2023/03/28 03:13:32;;;;;;;4.03;1.00;;;;;;;;;;5033363;28;20280;-61
2023/03/28 03:16:00;;;;;;;1.00;0.90;;;;;;;;;;5033379;28;20192;-62
2023/03/28 03:18:27;;;;;;;2.85;0.85;;;;;;;;;;5033197;28;20201;-62
2023/03/28 03:20:54;;;;;;;1.23;0.93;;;;;;;;;;5033270;28;20321;-61
2023/03/28 03:23:21;;;;;;;1.02;0.93;;;;;;;;;;5033370;28;20284;-61
2023/03/28 03:25:49;;;;;;;1.27;1.17;;;;;;;;;;5033297;28;20292;-62
2023/03/28 03:28:17;;;;;;;1.63;1.00;;;;;;;;;;5033259;28;20194;-61
2023/03/28 03:30:44;;;;;;;3.17;1.02;;;;;;;;;;5032992;28;20836;-62
2023/03/28 03:33:13;;;;;;;1.40;1.05;;;;;;;;;;5033215;28;20198;-62
2023/03/28 03:35:40;;;;;;;1.10;0.70;;;;;;;;;;5033252;28;20232;-62
2023/03/28 03:38:07;;;;;;;2.80;1.30;;;;;;;;;;5032979;28;20551;-62
2023/03/28 03:40:34;;;;;;;1.90;1.30;;;;;;;;;;5033144;28;20247;-62
2023/03/28 03:43:01;;;;;;;0.90;0.90;;;;;;;;;;5033211;28;20194;-62
2023/03/28 03:45:28;;;;;;;2.55;1.27;;;;;;;;;;5032788;28;20279;-60
2023/03/28 03:47:55;;;;;;;2.00;1.20;;;;;;;;;;5033092;28;20211;-62
2023/03/28 03:50:23;;;;;;;2.92;1.02;;;;;;;;;;5033075;28;20192;-62
2023/03/28 03:52:50;;;;;;;0.90;0.80;;;;;;;;;;5032534;28;20548;-62
2023/03/28 03:55:17;;;;;;;2.15;1.08;;;;;;;;;;5032861;28;20205;-62
2023/03/28 03:57:44;;;;;;;1.45;1.35;;;;;;;;;;5032761;28;20685;-62
2023/03/28 04:00:11;;;;;;;1.42;1.10;;;;;;;;;;5032613;28;20196;-62
2023/03/28 04:02:38;;;;;;;1.35;0.93;;;;;;;;;;5032875;28;20284;-62
2023/03/28 04:05:07;;;;;;;2.40;1.08;;;;;;;;;;5032836;28;20222;-62
2023/03/28 04:07:35;;;;;;;1.60;1.30;;;;;;;;;;5032612;28;20197;-62
2023/03/28 04:10:02;;;;;;;1.20;1.10;;;;;;;;;;5032753;28;20193;-63
2023/03/28 04:12:29;;;;;;;3.25;1.40;;;;;;;;;;5032641;28;20189;-62
2023/03/28 04:14:56;;;;;;;1.90;1.35;;;;;;;;;;5032649;28;20193;-62
2023/03/28 04:17:28;;;;;;;2.30;1.60;;;;;;;;;;5032804;28;20631;-62
2023/03/28 04:19:55;;;;;;;1.30;1.20;;;;;;;;;;5032674;28;20194;-62
2023/03/28 04:22:22;;;;;;;4.32;1.25;;;;;;;;;;5032588;28;20225;-62
2023/03/28 04:24:52;;;;;;;4.85;1.48;;;;;;;;;;5032468;28;20194;-61
2023/03/28 04:27:19;;;;;;;2.53;1.15;;;;;;;;;;5032332;28;20236;-61
2023/03/28 04:29:46;;;;;;;2.90;1.58;;;;;;;;;;5032351;28;20663;-62
2023/03/28 04:32:12;;;;;;;6.07;1.80;;;;;;;;;;5032592;28;20276;-62
2023/03/28 04:34:39;;;;;;;2.47;1.23;;;;;;;;;;5032284;28;20189;-62
2023/03/28 04:37:08;;;;;;;1.90;1.38;;;;;;;;;;5032362;28;20276;-62
2023/03/28 04:39:35;;;;;;;2.58;1.48;;;;;;;;;;5032137;28;20584;-61
2023/03/28 04:42:04;;;;;;;6.32;1.40;;;;;;;;;;5032497;28;20228;-62
2023/03/28 04:44:31;;;;;;;2.22;1.35;;;;;;;;;;5032335;28;20260;-62
2023/03/28 04:46:58;;;;;;;8.48;2.00;;;;;;;;;;5032365;28;20217;-62
2023/03/28 04:49:25;;;;;;;1.73;1.10;;;;;;;;;;5032320;28;20617;-62
2023/03/28 04:51:52;;;;;;;4.07;1.15;;;;;;;;;;5032286;28;20193;-62
2023/03/28 04:54:19;;;;;;;4.50;1.55;;;;;;;;;;5032084;28;20607;-62
2023/03/28 04:56:48;;;;;;;1.98;1.38;;;;;;;;;;5032392;28;20197;-62
2023/03/28 04:59:16;;;;;;;2.70;1.27;;;;;;;;;;5032082;28;20198;-62
2023/03/28 05:01:48;;;;;;;2.85;1.30;;;;;;;;;;5032022;28;20226;-62
2023/03/28 05:04:16;;;;;;;1.35;1.10;;;;;;;;;;5032811;28;20241;-62
2023/03/28 05:06:43;;;;;;;1.48;1.15;;;;;;;;;;5035511;28;20256;-62
2023/03/28 05:09:11;;;;;;;4.95;1.70;;;;;;;;;;5035799;28;20215;-62
2023/03/28 05:11:38;;;;;;;2.15;1.17;;;;;;;;;;5035668;28;20304;-62
2023/03/28 05:14:05;;;;;;;2.20;1.20;;;;;;;;;;5035545;28;20200;-62
2023/03/28 05:16:33;;;;;;;3.38;1.15;;;;;;;;;;5035547;28;20323;-62
2023/03/28 05:19:01;;;;;;;1.98;1.05;;;;;;;;;;5035440;28;20193;-62
2023/03/28 05:21:28;;;;;;;2.40;1.20;;;;;;;;;;5035225;28;20257;-62
2023/03/28 05:23:55;;;;;;;3.75;1.65;;;;;;;;;;5035372;28;20197;-62
2023/03/28 05:26:22;;;;;;;4.57;1.75;;;;;;;;;;5035400;28;20549;-62
2023/03/28 05:28:49;;;;;;;3.35;1.52;;;;;;;;;;5035245;28;20194;-62
2023/03/28 05:31:16;;;;;;;4.45;1.30;;;;;;;;;;5035167;28;20191;-62
2023/03/28 05:33:45;;;;;;;2.92;1.20;;;;;;;;;;5034910;28;20192;-62
2023/03/28 05:36:12;;;;;;;2.88;1.70;;;;;;;;;;5035195;28;20565;-61
2023/03/28 05:38:39;;;;;;;3.00;1.30;;;;;;;;;;5034726;28;20701;-62
2023/03/28 05:41:06;;;;;;;2.00;1.20;;;;;;;;;;5034987;28;20215;-61
2023/03/28 05:43:33;;;;;;;2.13;1.48;;;;;;;;;;5034930;28;20558;-62
2023/03/28 05:46:00;;;;;;;2.90;1.33;;;;;;;;;;5034932;28;20187;-61
2023/03/28 05:48:27;;;;;;;3.63;1.10;;;;;;;;;;5034573;28;20205;-61
2023/03/28 05:50:55;;;;;;;2.67;1.33;;;;;;;;;;5034645;28;20237;-61
2023/03/28 05:53:22;;;;;;;2.13;1.40;;;;;;;;;;5034825;28;20190;-62
2023/03/28 05:55:49;;;;;;;3.92;1.40;;;;;;;;;;5034831;28;20202;-62
2023/03/28 05:58:16;;;;;;;3.03;2.83;;;;;;;;;;5034717;28;20242;-62
2023/03/28 06:00:43;;;;;;;3.10;1.58;;;;;;;;;;5034555;28;20195;-62
2023/03/28 06:03:10;;;;;;;2.30;1.58;;;;;;;;;;5034513;28;20198;-62
2023/03/28 06:05:38;;;;;;;2.90;1.30;;;;;;;;;;5034360;28;20256;-62
2023/03/28 06:08:08;;;;;;;3.63;1.35;;;;;;;;;;5034560;28;20191;-61
2023/03/28 06:10:35;;;;;;;1.45;1.30;;;;;;;;;;5034423;28;20198;-61
2023/03/28 06:13:02;;;;;;;1.52;1.10;;;;;;;;;;5034434;28;20224;-62
2023/03/28 06:15:29;;;;;;;1.73;1.15;;;;;;;;;;5034608;28;20195;-62
2023/03/28 06:17:56;;;;;;;2.08;1.42;;;;;;;;;;5034430;28;20220;-61
2023/03/28 06:20:23;;;;;;;2.30;0.93;;;;;;;;;;5034319;28;20194;-61
2023/03/28 06:22:50;;;;;;;1.83;1.35;;;;;;;;;;5034226;28;20244;-61
2023/03/28 06:25:19;;;;;;;1.10;1.00;;;;;;;;;;5034169;28;20230;-62
2023/03/28 06:27:46;;;;;;;1.55;1.10;;;;;;;;;;5034138;28;20191;-61
2023/03/28 06:30:13;;;;;;;1.92;1.00;;;;;;;;;;5033889;28;20197;-61
2023/03/28 06:32:40;;;;;;;1.30;1.20;;;;;;;;;;5034141;28;20282;-62
2023/03/28 06:35:08;;;;;;;4.22;1.40;;;;;;;;;;5033935;28;20205;-62
2023/03/28 06:37:35;;;;;;;1.30;1.10;;;;;;;;;;5034078;28;20190;-62
2023/03/28 06:40:02;;;;;;;3.63;1.23;;;;;;;;;;5033792;28;20579;-61
2023/03/28 06:42:30;;;;;;;2.13;1.40;;;;;;;;;;5033769;28;20215;-62
2023/03/28 06:44:57;;;;;;;1.85;1.20;;;;;;;;;;5033914;28;20197;-62
2023/03/28 06:47:24;;;;;;;1.50;1.40;;;;;;;;;;5033771;28;20696;-61
2023/03/28 06:49:51;;;;;;;4.85;1.40;;;;;;;;;;5033677;28;20187;-62
2023/03/28 06:52:18;;;;;;;1.70;1.58;;;;;;;;;;5033548;28;20665;-61
2023/03/28 06:54:45;;;;;;;1.75;1.58;;;;;;;;;;5033590;28;20282;-61
2023/03/28 06:57:12;;;;;;;2.50;1.25;;;;;;;;;;5033605;28;20202;-61
2023/03/28 06:59:40;;;;;;;1.90;1.25;;;;;;;;;;5033660;28;20195;-61
2023/03/28 07:02:07;;;;;;;1.45;1.35;;;;;;;;;;5015597;28;20418;-62
2023/03/28 07:04:34;;;;;;;1.40;1.30;;;;;;;;;;5013689;28;20284;-61
2023/03/28 07:07:01;;;;;;;2.83;1.70;;;;;;;;;;5013479;28;20651;-61
2023/03/28 07:09:28;;;;;;;4.90;1.60;;;;;;;;;;5013655;28;20192;-61
2023/03/28 07:11:56;;;;;;;2.43;1.60;;;;;;;;;;5013357;28;20241;-61
2023/03/28 07:14:23;;;;;;;1.98;1.75;;;;;;;;;;5013590;28;20462;-61
2023/03/28 07:16:51;;;;;;;6.78;1.60;;;;;;;;;;5013592;28;20278;-61
2023/03/28 07:19:18;;;;;;;3.97;1.40;;;;;;;;;;5013431;28;20202;-61
2023/03/28 07:21:45;;;;;;;1.40;1.27;;;;;;;;;;5013347;28;20211;-59
2023/03/28 07:24:11;;;;;;;2.65;1.55;;;;;;;;;;5013263;28;20283;-59
2023/03/28 07:26:38;;;;;;;1.98;1.42;;;;;;;;;;5012857;28;20206;-58
2023/03/28 07:29:05;;;;;;;1.42;1.33;;;;;;;;;;5013196;28;20294;-59
2023/03/28 07:31:33;;;;;;;1.30;1.20;;;;;;;;;;5013442;28;20227;-59
2023/03/28 07:34:01;;;;;;;1.27;0.80;;;;;;;;;;5013311;28;20191;-59
2023/03/28 07:36:28;;;;;;;1.10;1.00;;;;;;;;;;5012497;28;20658;-59
2023/03/28 07:38:56;;;;;;;2.28;1.15;;;;;;;;;;5012190;28;20255;-59
2023/03/28 07:41:22;;;;;;;2.13;1.92;;;;;;;;;;5013020;28;20191;-58
2023/03/28 07:43:49;;;;;;;2.72;1.45;;;;;;;;;;5013131;28;20194;-62
2023/03/28 07:46:16;;;;;;;2.50;1.10;;;;;;;;;;5013130;28;20190;-61
2023/03/28 07:48:45;;;;;;;2.25;1.60;;;;;;;;;;5012796;28;20238;-58
2023/03/28 07:51:13;;;;;;;1.43;1.00;;;;;;;;;;5012352;28;20279;-61
2023/03/28 07:53:40;;;;;;;3.47;1.52;;;;;;;;;;5010237;28;20450;-59
2023/03/28 07:56:10;;;;;;;4.25;1.20;;;;;;;;;;5012685;28;20194;-59
2023/03/28 07:58:37;;;;;;;2.92;1.05;;;;;;;;;;5012539;28;20215;-59
2023/03/28 08:01:05;;;;;;;1.42;1.33;;;;;;;;;;5012513;28;20226;-59
2023/03/28 08:03:31;;;;;;;1.50;1.30;;;;;;;;;;5012335;28;20208;-59
2023/03/28 08:06:01;;;;;;;2.35;1.25;;;;;;;;;;5010365;28;20201;-60
2023/03/28 08:08:30;;;;;;;3.47;1.40;;;;;;;;;;5012742;28;20221;-60
2023/03/28 08:10:57;;;;;;;2.80;1.10;;;;;;;;;;5012938;28;20195;-60
2023/03/28 08:13:24;;;;;;;2.17;1.10;;;;;;;;;;5012800;28;20465;-61
2023/03/28 08:15:51;;;;;;;2.05;0.90;;;;;;;;;;5012851;28;20593;-60
2023/03/28 08:18:19;;;;;;;2.10;1.50;;;;;;;;;;5012773;28;20286;-60
2023/03/28 08:20:46;;;;;;;1.67;1.20;;;;;;;;;;5012759;28;20223;-60
2023/03/28 08:23:13;;;;;;;4.18;0.98;;;;;;;;;;5012687;28;20266;-60
2023/03/28 08:25:42;;;;;;;1.20;1.00;;;;;;;;;;5012671;28;20192;-60
2023/03/28 08:28:10;;;;;;;3.78;1.05;;;;;;;;;;5012744;28;20194;-60
2023/03/28 08:30:37;;;;;;;2.40;1.00;;;;;;;;;;5012586;28;20647;-60
2023/03/28 08:33:04;;;;;;;1.35;0.75;;;;;;;;;;5012507;28;20282;-60
2023/03/28 08:35:30;;;;;;;2.28;0.82;;;;;;;;;;5012823;28;20222;-60
2023/03/28 08:37:57;;;;;;;2.78;0.80;;;;;;;;;;5012782;28;20199;-60
2023/03/28 08:40:26;;;;;;;1.00;0.70;;;;;;;;;;5016444;28;20275;-60
2023/03/28 08:43:05;;;;;;;0.93;0.80;;;;;;;;;;5016217;28;20889;-61
2023/03/28 08:45:35;;;;;;;2.40;0.80;;;;;;;;;;5016185;28;20238;-60
2023/03/28 08:48:14;;;;;;;0.80;0.80;;;;;;;;;;5016465;28;20278;-60
2023/03/28 08:50:42;;;;;;;3.53;1.30;;;;;;;;;;5016231;28;20195;-60
2023/03/28 08:53:13;;;;;;;1.07;0.93;;;;;;;;;;5016086;28;20191;-60
2023/03/28 08:55:41;;;;;;;1.52;0.90;;;;;;;;;;5016081;28;20460;-60
2023/03/28 08:58:11;;;;;;;3.60;1.00;;;;;;;;;;5015837;28;20666;-60
2023/03/28 09:00:38;;;;;;;8.85;2.83;;;;;;;;;;5016091;28;20558;-60
2023/03/28 09:03:10;;;;;;;2.58;1.30;;;;;;;;;;5016128;28;20224;-60
2023/03/28 09:05:41;;;;;;;3.20;1.35;;;;;;;;;;5015972;28;20279;-60
2023/03/28 09:08:17;;;;;;;1.85;1.02;;;;;;;;;;5015883;28;20394;-60
2023/03/28 09:10:45;;;;;;;2.30;0.90;;;;;;;;;;5015687;28;20199;-60
2023/03/28 09:13:20;;;;;;;1.77;0.87;;;;;;;;;;5015717;28;20532;-60
2023/03/28 09:15:52;;;;;;;1.00;0.80;;;;;;;;;;5015493;28;20964;-60
2023/03/28 09:18:23;;;;;;;1.23;0.80;;;;;;;;;;5015712;28;20279;-60
2023/03/28 09:20:53;;;;;;;4.20;1.90;;;;;;;;;;5014991;28;20188;-60
2023/03/28 09:23:30;;;;;;;5.03;4.07;;;;;;;;;;5015529;28;20592;-60
2023/03/28 09:25:59;;;;;;;1.70;1.10;;;;;;;;;;5015639;28;20194;-60
2023/03/28 09:28:31;;;;;;;2.05;0.80;;;;;;;;;;5015518;28;20244;-59
2023/03/28 09:30:59;;;;;;;1.48;0.70;;;;;;;;;;5015386;28;20192;-60
2023/03/28 09:33:28;;;;;;;0.77;0.70;;;;;;;;;;5014891;28;20192;-61
2023/03/28 09:35:56;;;;;;;1.08;0.80;;;;;;;;;;5013374;28;20194;-61
2023/03/28 09:38:26;;;;;;;2.28;0.85;;;;;;;;;;5014676;28;20215;-60
2023/03/28 09:40:55;;;;;;;0.80;0.70;;;;;;;;;;5015320;28;20198;-60
2023/03/28 09:43:27;;;;;;;1.40;0.82;;;;;;;;;;5014683;28;20294;-61
2023/03/28 09:45:59;;;;;;;1.17;1.08;;;;;;;;;;5015219;28;20216;-60
2023/03/28 09:48:27;;;;;;;1.30;0.90;;;;;;;;;;5012280;28;20647;-59
2023/03/28 09:50:54;;;;;;;1.17;0.73;;;;;;;;;;5014087;28;20593;-60
2023/03/28 09:53:23;;;;;;;3.20;0.93;;;;;;;;;;5014943;28;20238;-60
2023/03/28 09:55:50;;;;;;;2.45;0.90;;;;;;;;;;5014852;28;20217;-62
2023/03/28 09:58:17;;;;;;;1.88;0.70;;;;;;;;;;5014632;28;20283;-62
2023/03/28 10:00:46;;;;;;;2.60;0.70;;;;;;;;;;5014117;28;20230;-63
2023/03/28 10:03:22;;;;;;;0.95;0.85;;;;;;;;;;5014166;28;20330;-61
2023/03/28 10:05:49;;;;;;;1.52;0.82;;;;;;;;;;5012956;28;20191;-61
2023/03/28 10:08:22;;;;;;;0.97;0.63;;;;;;;;;;5014454;28;20651;-62
2023/03/28 10:10:56;;;;;;;0.90;0.80;;;;;;;;;;5013981;28;20445;-61
2023/03/28 10:13:23;;;;;;;0.90;0.77;;;;;;;;;;5014159;28;20187;-61
2023/03/28 10:15:50;;;;;;;3.30;0.90;;;;;;;;;;5014079;28;20651;-61
2023/03/28 10:18:18;;;;;;;3.70;1.03;;;;;;;;;;5014061;28;20454;-62
2023/03/28 10:20:49;;;;;;;4.07;1.30;;;;;;;;;;5014445;28;20454;-62
2023/03/28 10:23:16;;;;;;;1.03;0.80;;;;;;;;;;5014311;28;20486;-60
2023/03/28 10:25:44;;;;;;;1.77;1.20;;;;;;;;;;5013898;28;20450;-61
2023/03/28 10:28:16;;;;;;;1.83;1.03;;;;;;;;;;5013326;28;20453;-58
2023/03/28 10:30:43;;;;;;;2.25;1.25;;;;;;;;;;5012005;28;20458;-60
2023/03/28 10:33:20;;;;;;;1.58;0.90;;;;;;;;;;5013416;28;20788;-60
2023/03/28 10:35:54;;;;;;;1.90;1.30;;;;;;;;;;5013153;28;20466;-58
2023/03/28 10:38:22;;;;;;;1.75;0.88;;;;;;;;;;5013709;28;20227;-58
2023/03/28 10:40:52;;;;;;;1.30;1.00;;;;;;;;;;5013678;28;20222;-56
2023/03/28 10:43:19;;;;;;;1.03;0.70;;;;;;;;;;5013642;28;20481;-56
2023/03/28 10:45:49;;;;;;;3.13;1.05;;;;;;;;;;5013884;28;20454;-57
2023/03/28 10:48:17;;;;;;;3.63;1.55;;;;;;;;;;5013557;28;20424;-57
2023/03/28 10:50:45;;;;;;;0.80;0.60;;;;;;;;;;5013710;28;20191;-61
2023/03/28 10:53:29;;;;;;;2.05;0.82;;;;;;;;;;5013790;28;20454;-59
2023/03/28 10:56:03;;;;;;;1.90;1.30;;;;;;;;;;5013784;28;20659;-61
2023/03/28 10:58:33;;;;;;;1.23;0.80;;;;;;;;;;5013303;28;20540;-59
2023/03/28 11:01:03;;;;;;;0.90;0.70;;;;;;;;;;5010776;28;20482;-61
2023/03/28 11:03:37;;;;;;;0.87;0.70;;;;;;;;;;5012759;28;20506;-61
2023/03/28 11:06:06;;;;;;;2.50;0.90;;;;;;;;;;5011555;28;20451;-62
2023/03/28 11:08:41;;;;;;;0.80;0.70;;;;;;;;;;5013079;28;20871;-64
2023/03/28 11:11:14;;;;;;;1.00;0.73;;;;;;;;;;5013302;28;20983;-63
2023/03/28 11:13:46;;;;;;;1.07;0.77;;;;;;;;;;5013571;28;20455;-60
2023/03/28 11:16:19;;;;;;;1.50;0.70;;;;;;;;;;5013191;28;20510;-59
2023/03/28 11:18:56;;;;;;;1.40;0.85;;;;;;;;;;5013322;28;20461;-60
2023/03/28 11:21:27;;;;;;;7.40;1.40;;;;;;;;;;5013083;28;20698;-61
2023/03/28 11:24:00;;;;;;;1.50;1.30;;;;;;;;;;5013113;28;20489;-60
2023/03/28 11:26:32;;;;;;;2.60;0.70;;;;;;;;;;5013494;28;20446;-60
2023/03/28 11:29:09;;;;;;;1.00;0.90;;;;;;;;;;5013089;28;20454;-61
2023/03/28 11:31:38;;;;;;;3.50;1.00;;;;;;;;;;4993621;28;20552;-61
2023/03/28 11:34:06;;;;;;;1.63;0.93;;;;;;;;;;5002775;28;20454;-61
2023/03/28 11:36:35;;;;;;;0.80;0.80;;;;;;;;;;5012704;28;21003;-60
2023/03/28 11:39:06;;;;;;;0.80;0.77;;;;;;;;;;5012748;28;20557;-62
2023/03/28 11:41:36;;;;;;;1.57;1.47;;;;;;;;;;5013164;28;20198;-62
2023/03/28 11:44:05;;;;;;;0.80;0.70;;;;;;;;;;5012448;28;21025;-61
2023/03/28 11:46:33;;;;;;;1.60;1.20;;;;;;;;;;5010229;28;20188;-60
2023/03/28 11:49:08;;;;;;;1.57;1.10;;;;;;;;;;5012848;28;20922;-63
2023/03/28 11:51:36;;;;;;;2.60;0.70;;;;;;;;;;5003929;28;20449;-63
2023/03/28 11:54:07;;;;;;;1.90;0.83;;;;;;;;;;5011118;28;20459;-62
2023/03/28 11:56:41;;;;;;;1.00;0.90;;;;;;;;;;5011402;28;20457;-61
2023/03/28 11:59:11;;;;;;;3.73;0.90;;;;;;;;;;5010309;28;20456;-63
2023/03/28 12:01:40;;;;;;;1.00;0.80;;;;;;;;;;5012215;28;20453;-63
2023/03/28 12:04:11;;;;;;;1.00;0.90;;;;;;;;;;5012324;28;20799;-62
2023/03/28 12:06:42;;;;;;;2.47;1.10;;;;;;;;;;5012271;28;20443;-61
2023/03/28 12:09:15;;;;;;;3.13;0.93;;;;;;;;;;5012153;28;20446;-63
2023/03/28 12:11:44;;;;;;;3.17;0.90;;;;;;;;;;5011928;28;20446;-60
2023/03/28 12:14:31;;;;;;;2.17;0.80;;;;;;;;;;5014411;28;21037;-61
2023/03/28 12:17:00;;;;;;;1.17;1.07;;;;;;;;;;5015592;28;20446;-61
2023/03/28 12:19:31;;;;;;;1.33;0.60;;;;;;;;;;5016582;28;20450;-62
2023/03/28 12:22:00;;;;;;;4.33;0.80;;;;;;;;;;5016606;28;20996;-61
2023/03/28 12:24:34;;;;;;;1.10;1.00;;;;;;;;;;5015826;28;21060;-63
2023/03/28 12:27:05;;;;;;;6.53;3.70;;;;;;;;;;5013877;28;20926;-60
2023/03/28 12:29:36;;;;;;;2.47;1.20;;;;;;;;;;5016339;28;20451;-61
2023/03/28 12:32:06;;;;;;;1.30;1.20;;;;;;;;;;5016290;28;20825;-61
2023/03/28 12:34:38;;;;;;;1.13;0.90;;;;;;;;;;5013295;28;20455;-63
2023/03/28 12:37:10;;;;;;;2.47;0.80;;;;;;;;;;5015784;28;20446;-63
2023/03/28 12:39:42;;;;;;;1.30;0.90;;;;;;;;;;5013975;28;20470;-61
2023/03/28 12:42:12;;;;;;;0.90;0.90;;;;;;;;;;5016457;28;20454;-60
2023/03/28 12:44:42;;;;;;;1.00;0.80;;;;;;;;;;5015956;28;20518;-60
2023/03/28 12:47:12;;;;;;;1.20;0.77;;;;;;;;;;5015977;28;20450;-60
2023/03/28 12:49:40;;;;;;;1.20;1.10;;;;;;;;;;5015906;28;20580;-60
2023/03/28 12:52:08;;;;;;;0.90;0.87;;;;;;;;;;5015598;28;20454;-61
2023/03/28 12:54:36;;;;;;;4.03;0.80;;;;;;;;;;5012986;28;20454;-60
2023/03/28 12:57:05;;;;;;;1.60;1.50;;;;;;;;;;5015319;28;20810;-60
2023/03/28 12:59:36;;;;;;;1.53;0.70;;;;;;;;;;5015422;28;20537;-60
2023/03/28 13:02:06;;;;;;;0.80;0.70;;;;;;;;;;5015894;28;20461;-60
2023/03/28 13:04:34;;;;;;;0.90;0.80;;;;;;;;;;5015465;28;20478;-60
2023/03/28 13:07:05;;;;;;;1.00;0.73;;;;;;;;;;5014995;28;20939;-61
2023/03/28 13:09:46;;;;;;;2.10;0.90;;;;;;;;;;5015097;28;20446;-62
2023/03/28 13:12:24;;;;;;;2.20;0.70;;;;;;;;;;5013343;28;20454;-61
2023/03/28 13:14:58;;;;;;;0.90;0.80;;;;;;;;;;5013616;28;20961;-61
2023/03/28 13:17:27;;;;;;;1.00;0.80;;;;;;;;;;5012590;28;20479;-61
2023/03/28 13:19:55;;;;;;;2.13;1.00;;;;;;;;;;5015141;28;20525;-60
2023/03/28 13:22:30;;;;;;;2.03;0.80;;;;;;;;;;5015454;28;20486;-60
2023/03/28 13:25:19;;;;;;;0.70;0.70;;;;;;;;;;5014383;28;20481;-60
2023/03/28 13:27:48;;;;;;;1.30;1.10;;;;;;;;;;5014594;28;20447;-60
2023/03/28 13:30:16;;;;;;;1.83;1.20;;;;;;;;;;5014779;28;20446;-60
2023/03/28 13:32:45;;;;;;;0.80;0.80;;;;;;;;;;5014740;28;20446;-60
2023/03/28 13:35:35;;;;;;;5.07;1.10;;;;;;;;;;5014597;28;20813;-60
2023/03/28 13:38:13;;;;;;;1.73;1.00;;;;;;;;;;5001240;28;20486;-60
2023/03/28 13:40:44;;;;;;;1.63;0.63;;;;;;;;;;5015081;28;20549;-60
2023/03/28 13:43:24;;;;;;;4.60;1.03;;;;;;;;;;5014899;28;20822;-60
2023/03/28 13:45:53;;;;;;;1.20;1.00;;;;;;;;;;5013640;28;20482;-61
2023/03/28 13:48:20;;;;;;;1.70;1.00;;;;;;;;;;5014569;28;20286;-61
2023/03/28 13:50:47;;;;;;;1.20;1.10;;;;;;;;;;5014365;28;20641;-61
2023/03/28 13:53:14;;;;;;;3.10;0.90;;;;;;;;;;5014360;28;20539;-61
2023/03/28 13:55:43;;;;;;;1.60;1.00;;;;;;;;;;5014306;28;20482;-61
2023/03/28 13:58:11;;;;;;;1.63;0.97;;;;;;;;;;5011652;28;20849;-61
2023/03/28 14:00:40;;;;;;;0.90;0.80;;;;;;;;;;5014391;28;20534;-61
2023/03/28 14:03:13;;;;;;;0.90;0.70;;;;;;;;;;5014108;28;20596;-61
2023/03/28 14:05:43;;;;;;;0.73;0.70;;;;;;;;;;5014486;28;20451;-61
2023/03/28 14:08:22;;;;;;;1.00;0.70;;;;;;;;;;5014515;28;20481;-62
2023/03/28 14:10:51;;;;;;;1.97;1.03;;;;;;;;;;5014566;28;20618;-61
2023/03/28 14:13:20;;;;;;;0.80;0.70;;;;;;;;;;5014659;28;20501;-61
2023/03/28 14:15:48;;;;;;;2.53;1.00;;;;;;;;;;5014528;28;20455;-61
2023/03/28 14:18:16;;;;;;;0.80;0.80;;;;;;;;;;5014444;28;20458;-61
2023/03/28 14:20:44;;;;;;;1.00;0.90;;;;;;;;;;5014350;28;20543;-61
2023/03/28 14:23:25;;;;;;;0.70;0.70;;;;;;;;;;5013909;28;20459;-61
2023/03/28 14:25:52;;;;;;;2.37;0.70;;;;;;;;;;5014293;28;20465;-61
2023/03/28 14:28:19;;;;;;;0.70;0.63;;;;;;;;;;5013933;28;20530;-61
2023/03/28 14:30:46;;;;;;;0.73;0.73;;;;;;;;;;5013833;28;20454;-61
2023/03/28 14:33:19;;;;;;;0.80;0.80;;;;;;;;;;5014241;28;20461;-61
2023/03/28 14:35:56;;;;;;;1.00;0.90;;;;;;;;;;5014101;28;21110;-61
2023/03/28 14:38:28;;;;;;;1.00;0.90;;;;;;;;;;5014095;28;20478;-61
2023/03/28 14:40:55;;;;;;;4.63;2.80;;;;;;;;;;5014233;28;20447;-61
2023/03/28 14:43:26;;;;;;;3.03;1.30;;;;;;;;;;5014256;28;20918;-61
2023/03/28 14:45:53;;;;;;;0.80;0.70;;;;;;;;;;5013935;28;20554;-61
2023/03/28 14:48:23;;;;;;;1.77;0.90;;;;;;;;;;5014081;28;20798;-61
2023/03/28 14:50:50;;;;;;;1.53;0.80;;;;;;;;;;5013898;28;20961;-60
2023/03/28 14:53:19;;;;;;;0.83;0.70;;;;;;;;;;5013903;28;20539;-60
2023/03/28 14:55:48;;;;;;;3.03;0.80;;;;;;;;;;5013841;28;20451;-60